sensor_id;sensor_type;location;lat;lon;timestamp;P1;durP1;ratioP1;P2;durP2;ratioP2
77220;SDS011;66217;50.004;8.266;2023-04-25T00:01:03;5.07;;;3.13;;
77220;SDS011;66217;50.004;8.266;2023-04-25T00:03:30;8.50;;;3.40;;
77220;SDS011;66217;50.004;8.266;2023-04-25T00:05:57;4.55;;;3.10;;
77220;SDS011;66217;50.004;8.266;2023-04-25T00:08:26;5.55;;;3.47;;
77220;SDS011;66217;50.004;8.266;2023-04-25T00:10:52;8.35;;;3.40;;
77220;SDS011;66217;50.004;8.266;2023-04-25T00:13:17;5.43;;;3.38;;
77220;SDS011;66217;50.004;8.266;2023-04-25T00:15:44;4.60;;;3.10;;
77220;SDS011;66217;50.004;8.266;2023-04-25T00:18:11;5.43;;;3.03;;
77220;SDS011;66217;50.004;8.266;2023-04-25T00:20:36;5.88;;;3.47;;
77220;SDS011;66217;50.004;8.266;2023-04-25T00:23:02;6.07;;;3.42;;
77220;SDS011;66217;50.004;8.266;2023-04-25T00:25:27;5.43;;;3.50;;
77220;SDS011;66217;50.004;8.266;2023-04-25T00:27:53;5.47;;;3.22;;
77220;SDS011;66217;50.004;8.266;2023-04-25T00:30:19;4.65;;;3.28;;
77220;SDS011;66217;50.004;8.266;2023-04-25T00:32:44;5.88;;;3.60;;
77220;SDS011;66217;50.004;8.266;2023-04-25T00:35:11;4.93;;;3.75;;
77220;SDS011;66217;50.004;8.266;2023-04-25T00:37:36;7.38;;;3.67;;
77220;SDS011;66217;50.004;8.266;2023-04-25T00:40:02;4.57;;;3.25;;
77220;SDS011;66217;50.004;8.266;2023-04-25T00:42:31;10.38;;;3.38;;
77220;SDS011;66217;50.004;8.266;2023-04-25T00:44:57;4.88;;;3.40;;
77220;SDS011;66217;50.004;8.266;2023-04-25T00:47:23;8.80;;;4.05;;
77220;SDS011;66217;50.004;8.266;2023-04-25T00:49:53;5.15;;;3.72;;
77220;SDS011;66217;50.004;8.266;2023-04-25T00:52:19;5.00;;;3.40;;
77220;SDS011;66217;50.004;8.266;2023-04-25T00:54:44;8.27;;;4.00;;
77220;SDS011;66217;50.004;8.266;2023-04-25T00:57:10;5.80;;;3.35;;
77220;SDS011;66217;50.004;8.266;2023-04-25T00:59:36;5.93;;;3.95;;
77220;SDS011;66217;50.004;8.266;2023-04-25T01:02:03;6.85;;;3.80;;
77220;SDS011;66217;50.004;8.266;2023-04-25T01:04:29;5.68;;;3.80;;
77220;SDS011;66217;50.004;8.266;2023-04-25T01:06:55;4.28;;;3.05;;
77220;SDS011;66217;50.004;8.266;2023-04-25T01:09:20;5.93;;;3.70;;
77220;SDS011;66217;50.004;8.266;2023-04-25T01:11:47;7.07;;;3.88;;
77220;SDS011;66217;50.004;8.266;2023-04-25T01:14:12;5.30;;;3.53;;
77220;SDS011;66217;50.004;8.266;2023-04-25T01:16:38;5.68;;;3.90;;
77220;SDS011;66217;50.004;8.266;2023-04-25T01:19:08;5.68;;;3.72;;
77220;SDS011;66217;50.004;8.266;2023-04-25T01:21:36;5.97;;;3.58;;
77220;SDS011;66217;50.004;8.266;2023-04-25T01:24:02;5.30;;;3.63;;
77220;SDS011;66217;50.004;8.266;2023-04-25T01:26:28;6.00;;;3.80;;
77220;SDS011;66217;50.004;8.266;2023-04-25T01:28:53;5.80;;;3.55;;
77220;SDS011;66217;50.004;8.266;2023-04-25T01:31:19;5.28;;;3.70;;
77220;SDS011;66217;50.004;8.266;2023-04-25T01:33:45;5.65;;;3.28;;
77220;SDS011;66217;50.004;8.266;2023-04-25T01:36:12;5.75;;;3.42;;
77220;SDS011;66217;50.004;8.266;2023-04-25T01:38:38;8.90;;;4.13;;
77220;SDS011;66217;50.004;8.266;2023-04-25T01:41:03;5.22;;;3.70;;
77220;SDS011;66217;50.004;8.266;2023-04-25T01:43:30;5.65;;;3.70;;
77220;SDS011;66217;50.004;8.266;2023-04-25T01:45:56;4.88;;;3.55;;
77220;SDS011;66217;50.004;8.266;2023-04-25T01:48:22;4.90;;;3.38;;
77220;SDS011;66217;50.004;8.266;2023-04-25T01:50:47;6.95;;;3.95;;
77220;SDS011;66217;50.004;8.266;2023-04-25T01:53:13;5.70;;;3.50;;
77220;SDS011;66217;50.004;8.266;2023-04-25T01:55:40;4.80;;;3.58;;
77220;SDS011;66217;50.004;8.266;2023-04-25T01:58:10;5.82;;;3.85;;
77220;SDS011;66217;50.004;8.266;2023-04-25T02:01:00;7.22;;;3.92;;
77220;SDS011;66217;50.004;8.266;2023-04-25T02:03:32;6.50;;;3.90;;
77220;SDS011;66217;50.004;8.266;2023-04-25T02:05:58;6.13;;;4.20;;
77220;SDS011;66217;50.004;8.266;2023-04-25T02:08:24;6.68;;;4.25;;
77220;SDS011;66217;50.004;8.266;2023-04-25T02:10:53;7.15;;;4.10;;
77220;SDS011;66217;50.004;8.266;2023-04-25T02:13:19;8.13;;;4.55;;
77220;SDS011;66217;50.004;8.266;2023-04-25T02:15:57;8.07;;;5.03;;
77220;SDS011;66217;50.004;8.266;2023-04-25T02:18:23;8.93;;;5.18;;
77220;SDS011;66217;50.004;8.266;2023-04-25T02:20:48;8.57;;;4.60;;
77220;SDS011;66217;50.004;8.266;2023-04-25T02:23:14;9.40;;;5.05;;
77220;SDS011;66217;50.004;8.266;2023-04-25T02:25:44;9.13;;;4.47;;
77220;SDS011;66217;50.004;8.266;2023-04-25T02:28:09;8.73;;;4.63;;
77220;SDS011;66217;50.004;8.266;2023-04-25T02:30:36;8.13;;;5.07;;
77220;SDS011;66217;50.004;8.266;2023-04-25T02:33:03;6.90;;;4.63;;
77220;SDS011;66217;50.004;8.266;2023-04-25T02:35:29;9.48;;;4.68;;
77220;SDS011;66217;50.004;8.266;2023-04-25T02:37:55;10.98;;;5.13;;
77220;SDS011;66217;50.004;8.266;2023-04-25T02:40:20;8.88;;;4.90;;
77220;SDS011;66217;50.004;8.266;2023-04-25T02:42:45;8.90;;;4.60;;
77220;SDS011;66217;50.004;8.266;2023-04-25T02:45:11;6.60;;;4.65;;
77220;SDS011;66217;50.004;8.266;2023-04-25T02:47:36;12.88;;;4.57;;
77220;SDS011;66217;50.004;8.266;2023-04-25T02:50:02;8.55;;;4.78;;
77220;SDS011;66217;50.004;8.266;2023-04-25T02:52:28;8.82;;;5.38;;
77220;SDS011;66217;50.004;8.266;2023-04-25T02:55:01;10.27;;;5.13;;
77220;SDS011;66217;50.004;8.266;2023-04-25T02:57:28;7.43;;;4.90;;
77220;SDS011;66217;50.004;8.266;2023-04-25T02:59:53;10.60;;;5.65;;
77220;SDS011;66217;50.004;8.266;2023-04-25T03:02:19;8.90;;;5.32;;
77220;SDS011;66217;50.004;8.266;2023-04-25T03:04:44;14.68;;;5.78;;
77220;SDS011;66217;50.004;8.266;2023-04-25T03:07:11;10.65;;;5.57;;
77220;SDS011;66217;50.004;8.266;2023-04-25T03:09:36;8.52;;;5.35;;
77220;SDS011;66217;50.004;8.266;2023-04-25T03:12:02;11.18;;;5.78;;
77220;SDS011;66217;50.004;8.266;2023-04-25T03:14:27;11.63;;;6.15;;
77220;SDS011;66217;50.004;8.266;2023-04-25T03:16:53;11.70;;;5.78;;
77220;SDS011;66217;50.004;8.266;2023-04-25T03:19:19;12.07;;;6.25;;
77220;SDS011;66217;50.004;8.266;2023-04-25T03:21:46;12.80;;;6.13;;
77220;SDS011;66217;50.004;8.266;2023-04-25T03:24:12;8.75;;;5.47;;
77220;SDS011;66217;50.004;8.266;2023-04-25T03:26:37;8.90;;;5.70;;
77220;SDS011;66217;50.004;8.266;2023-04-25T03:29:04;9.88;;;6.28;;
77220;SDS011;66217;50.004;8.266;2023-04-25T03:31:29;10.50;;;5.90;;
77220;SDS011;66217;50.004;8.266;2023-04-25T03:33:55;13.55;;;6.57;;
77220;SDS011;66217;50.004;8.266;2023-04-25T03:36:22;10.27;;;5.72;;
77220;SDS011;66217;50.004;8.266;2023-04-25T03:38:48;10.68;;;6.03;;
77220;SDS011;66217;50.004;8.266;2023-04-25T03:41:15;16.30;;;7.10;;
77220;SDS011;66217;50.004;8.266;2023-04-25T03:43:47;16.40;;;6.72;;
77220;SDS011;66217;50.004;8.266;2023-04-25T03:46:14;13.00;;;6.90;;
77220;SDS011;66217;50.004;8.266;2023-04-25T03:48:40;13.93;;;6.95;;
77220;SDS011;66217;50.004;8.266;2023-04-25T03:51:07;15.52;;;6.45;;
77220;SDS011;66217;50.004;8.266;2023-04-25T03:53:37;14.00;;;7.18;;
77220;SDS011;66217;50.004;8.266;2023-04-25T03:56:18;16.38;;;7.47;;
77220;SDS011;66217;50.004;8.266;2023-04-25T03:58:45;11.40;;;7.03;;
77220;SDS011;66217;50.004;8.266;2023-04-25T04:01:12;11.88;;;6.30;;
77220;SDS011;66217;50.004;8.266;2023-04-25T04:03:38;13.27;;;6.75;;
77220;SDS011;66217;50.004;8.266;2023-04-25T04:06:04;14.20;;;6.93;;
77220;SDS011;66217;50.004;8.266;2023-04-25T04:08:34;14.18;;;7.57;;
77220;SDS011;66217;50.004;8.266;2023-04-25T04:11:00;15.77;;;7.20;;
77220;SDS011;66217;50.004;8.266;2023-04-25T04:13:26;15.23;;;7.63;;
77220;SDS011;66217;50.004;8.266;2023-04-25T04:15:52;12.55;;;6.70;;
77220;SDS011;66217;50.004;8.266;2023-04-25T04:18:18;12.57;;;6.63;;
77220;SDS011;66217;50.004;8.266;2023-04-25T04:20:44;12.75;;;7.07;;
77220;SDS011;66217;50.004;8.266;2023-04-25T04:23:11;13.40;;;6.93;;
77220;SDS011;66217;50.004;8.266;2023-04-25T04:25:37;16.38;;;6.43;;
77220;SDS011;66217;50.004;8.266;2023-04-25T04:28:12;12.10;;;5.45;;
77220;SDS011;66217;50.004;8.266;2023-04-25T04:30:53;11.02;;;5.18;;
77220;SDS011;66217;50.004;8.266;2023-04-25T04:33:18;12.40;;;5.13;;
77220;SDS011;66217;50.004;8.266;2023-04-25T04:35:45;13.73;;;4.97;;
77220;SDS011;66217;50.004;8.266;2023-04-25T04:38:12;13.88;;;5.00;;
77220;SDS011;66217;50.004;8.266;2023-04-25T04:40:41;16.50;;;4.97;;
77220;SDS011;66217;50.004;8.266;2023-04-25T04:43:30;10.88;;;5.03;;
77220;SDS011;66217;50.004;8.266;2023-04-25T04:46:22;12.98;;;5.07;;
77220;SDS011;66217;50.004;8.266;2023-04-25T04:49:10;12.55;;;4.35;;
77220;SDS011;66217;50.004;8.266;2023-04-25T04:51:52;9.77;;;4.53;;
77220;SDS011;66217;50.004;8.266;2023-04-25T04:54:38;17.50;;;5.05;;
77220;SDS011;66217;50.004;8.266;2023-04-25T04:57:16;14.70;;;4.93;;
77220;SDS011;66217;50.004;8.266;2023-04-25T05:00:10;23.55;;;5.38;;
77220;SDS011;66217;50.004;8.266;2023-04-25T05:02:55;13.05;;;5.07;;
77220;SDS011;66217;50.004;8.266;2023-04-25T05:05:41;15.50;;;6.25;;
77220;SDS011;66217;50.004;8.266;2023-04-25T05:08:25;14.15;;;5.57;;
77220;SDS011;66217;50.004;8.266;2023-04-25T05:11:08;19.73;;;5.60;;
77220;SDS011;66217;50.004;8.266;2023-04-25T05:14:02;13.77;;;5.57;;
77220;SDS011;66217;50.004;8.266;2023-04-25T05:16:54;13.50;;;4.78;;
77220;SDS011;66217;50.004;8.266;2023-04-25T05:19:54;13.00;;;5.05;;
77220;SDS011;66217;50.004;8.266;2023-04-25T05:22:55;13.63;;;5.50;;
77220;SDS011;66217;50.004;8.266;2023-04-25T05:25:44;13.90;;;5.47;;
77220;SDS011;66217;50.004;8.266;2023-04-25T05:28:28;10.18;;;4.97;;
77220;SDS011;66217;50.004;8.266;2023-04-25T05:31:07;14.13;;;4.65;;
77220;SDS011;66217;50.004;8.266;2023-04-25T05:33:45;16.80;;;4.95;;
77220;SDS011;66217;50.004;8.266;2023-04-25T05:36:11;15.93;;;5.00;;
77220;SDS011;66217;50.004;8.266;2023-04-25T05:38:37;13.73;;;4.65;;
77220;SDS011;66217;50.004;8.266;2023-04-25T05:41:22;14.20;;;4.40;;
77220;SDS011;66217;50.004;8.266;2023-04-25T05:43:58;14.13;;;4.53;;
77220;SDS011;66217;50.004;8.266;2023-04-25T05:46:33;12.98;;;4.57;;
77220;SDS011;66217;50.004;8.266;2023-04-25T05:49:20;10.93;;;4.40;;
77220;SDS011;66217;50.004;8.266;2023-04-25T05:52:12;21.00;;;5.80;;
77220;SDS011;66217;50.004;8.266;2023-04-25T05:54:47;12.40;;;4.68;;
77220;SDS011;66217;50.004;8.266;2023-04-25T05:57:26;18.95;;;4.78;;
77220;SDS011;66217;50.004;8.266;2023-04-25T05:59:53;18.83;;;4.68;;
77220;SDS011;66217;50.004;8.266;2023-04-25T06:02:19;13.63;;;4.68;;
77220;SDS011;66217;50.004;8.266;2023-04-25T06:04:48;11.00;;;4.65;;
77220;SDS011;66217;50.004;8.266;2023-04-25T06:07:14;9.55;;;4.55;;
77220;SDS011;66217;50.004;8.266;2023-04-25T06:09:40;11.98;;;4.00;;
77220;SDS011;66217;50.004;8.266;2023-04-25T06:12:06;16.58;;;5.45;;
77220;SDS011;66217;50.004;8.266;2023-04-25T06:14:32;14.38;;;4.28;;
77220;SDS011;66217;50.004;8.266;2023-04-25T06:16:58;11.27;;;4.35;;
77220;SDS011;66217;50.004;8.266;2023-04-25T06:19:25;17.13;;;4.85;;
77220;SDS011;66217;50.004;8.266;2023-04-25T06:21:51;13.63;;;4.80;;
77220;SDS011;66217;50.004;8.266;2023-04-25T06:24:17;9.68;;;3.83;;
77220;SDS011;66217;50.004;8.266;2023-04-25T06:26:43;10.93;;;4.50;;
77220;SDS011;66217;50.004;8.266;2023-04-25T06:29:09;12.23;;;5.65;;
77220;SDS011;66217;50.004;8.266;2023-04-25T06:31:35;11.80;;;5.40;;
77220;SDS011;66217;50.004;8.266;2023-04-25T06:34:00;12.02;;;5.30;;
77220;SDS011;66217;50.004;8.266;2023-04-25T06:36:27;11.55;;;5.07;;
77220;SDS011;66217;50.004;8.266;2023-04-25T06:38:59;13.88;;;4.28;;
77220;SDS011;66217;50.004;8.266;2023-04-25T06:41:25;8.85;;;3.60;;
77220;SDS011;66217;50.004;8.266;2023-04-25T06:43:51;13.68;;;5.28;;
77220;SDS011;66217;50.004;8.266;2023-04-25T06:46:28;12.40;;;4.28;;
77220;SDS011;66217;50.004;8.266;2023-04-25T06:48:56;13.20;;;4.18;;
77220;SDS011;66217;50.004;8.266;2023-04-25T06:51:22;9.07;;;3.80;;
77220;SDS011;66217;50.004;8.266;2023-04-25T06:53:51;11.65;;;4.13;;
77220;SDS011;66217;50.004;8.266;2023-04-25T06:56:25;5.13;;;3.55;;
77220;SDS011;66217;50.004;8.266;2023-04-25T06:59:02;9.07;;;4.00;;
77220;SDS011;66217;50.004;8.266;2023-04-25T07:01:31;13.18;;;4.47;;
77220;SDS011;66217;50.004;8.266;2023-04-25T07:03:59;11.65;;;3.70;;
77220;SDS011;66217;50.004;8.266;2023-04-25T07:06:25;9.38;;;4.30;;
77220;SDS011;66217;50.004;8.266;2023-04-25T07:08:52;10.73;;;4.28;;
77220;SDS011;66217;50.004;8.266;2023-04-25T07:11:17;12.43;;;4.38;;
77220;SDS011;66217;50.004;8.266;2023-04-25T07:13:43;11.18;;;4.70;;
77220;SDS011;66217;50.004;8.266;2023-04-25T07:16:09;9.38;;;4.38;;
77220;SDS011;66217;50.004;8.266;2023-04-25T07:18:35;13.93;;;4.25;;
77220;SDS011;66217;50.004;8.266;2023-04-25T07:21:01;10.90;;;3.97;;
77220;SDS011;66217;50.004;8.266;2023-04-25T07:23:28;8.23;;;3.53;;
77220;SDS011;66217;50.004;8.266;2023-04-25T07:25:54;8.88;;;3.40;;
77220;SDS011;66217;50.004;8.266;2023-04-25T07:28:23;9.27;;;3.70;;
77220;SDS011;66217;50.004;8.266;2023-04-25T07:30:48;12.07;;;3.53;;
77220;SDS011;66217;50.004;8.266;2023-04-25T07:33:14;12.50;;;3.75;;
77220;SDS011;66217;50.004;8.266;2023-04-25T07:35:39;11.50;;;3.83;;
77220;SDS011;66217;50.004;8.266;2023-04-25T07:38:05;10.93;;;4.00;;
77220;SDS011;66217;50.004;8.266;2023-04-25T07:40:32;10.80;;;3.58;;
77220;SDS011;66217;50.004;8.266;2023-04-25T07:43:04;8.98;;;3.42;;
77220;SDS011;66217;50.004;8.266;2023-04-25T07:45:36;7.95;;;3.50;;
77220;SDS011;66217;50.004;8.266;2023-04-25T07:48:02;6.13;;;2.78;;
77220;SDS011;66217;50.004;8.266;2023-04-25T07:50:30;8.45;;;3.03;;
77220;SDS011;66217;50.004;8.266;2023-04-25T07:52:56;8.73;;;3.03;;
77220;SDS011;66217;50.004;8.266;2023-04-25T07:55:34;5.82;;;2.28;;
77220;SDS011;66217;50.004;8.266;2023-04-25T07:58:13;7.38;;;2.20;;
77220;SDS011;66217;50.004;8.266;2023-04-25T08:00:41;6.25;;;2.17;;
77220;SDS011;66217;50.004;8.266;2023-04-25T08:03:36;8.90;;;2.13;;
77220;SDS011;66217;50.004;8.266;2023-04-25T08:06:06;5.72;;;2.17;;
77220;SDS011;66217;50.004;8.266;2023-04-25T08:08:37;5.80;;;2.30;;
77220;SDS011;66217;50.004;8.266;2023-04-25T08:11:05;3.63;;;1.80;;
77220;SDS011;66217;50.004;8.266;2023-04-25T08:13:31;9.68;;;2.15;;
77220;SDS011;66217;50.004;8.266;2023-04-25T08:15:57;6.75;;;2.65;;
77220;SDS011;66217;50.004;8.266;2023-04-25T08:18:22;6.00;;;2.67;;
77220;SDS011;66217;50.004;8.266;2023-04-25T08:20:50;4.13;;;1.90;;
77220;SDS011;66217;50.004;8.266;2023-04-25T08:23:16;8.95;;;1.98;;
77220;SDS011;66217;50.004;8.266;2023-04-25T08:25:49;6.43;;;1.80;;
77220;SDS011;66217;50.004;8.266;2023-04-25T08:28:17;6.32;;;2.00;;
77220;SDS011;66217;50.004;8.266;2023-04-25T08:30:44;12.27;;;2.63;;
77220;SDS011;66217;50.004;8.266;2023-04-25T08:33:12;4.00;;;1.83;;
77220;SDS011;66217;50.004;8.266;2023-04-25T08:36:00;2.40;;;1.50;;
77220;SDS011;66217;50.004;8.266;2023-04-25T08:38:26;6.05;;;2.35;;
77220;SDS011;66217;50.004;8.266;2023-04-25T08:40:52;8.15;;;2.45;;
77220;SDS011;66217;50.004;8.266;2023-04-25T08:43:21;8.60;;;2.28;;
77220;SDS011;66217;50.004;8.266;2023-04-25T08:45:47;7.35;;;2.20;;
77220;SDS011;66217;50.004;8.266;2023-04-25T08:48:22;4.95;;;2.05;;
77220;SDS011;66217;50.004;8.266;2023-04-25T08:50:49;8.55;;;2.40;;
77220;SDS011;66217;50.004;8.266;2023-04-25T08:53:17;6.40;;;1.83;;
77220;SDS011;66217;50.004;8.266;2023-04-25T08:55:49;5.40;;;2.20;;
77220;SDS011;66217;50.004;8.266;2023-04-25T08:58:15;4.78;;;2.22;;
77220;SDS011;66217;50.004;8.266;2023-04-25T09:00:41;4.65;;;2.15;;
77220;SDS011;66217;50.004;8.266;2023-04-25T09:03:06;5.15;;;2.30;;
77220;SDS011;66217;50.004;8.266;2023-04-25T09:05:33;3.58;;;2.10;;
77220;SDS011;66217;50.004;8.266;2023-04-25T09:07:59;4.75;;;2.13;;
77220;SDS011;66217;50.004;8.266;2023-04-25T09:10:26;4.13;;;2.33;;
77220;SDS011;66217;50.004;8.266;2023-04-25T09:13:28;9.02;;;2.53;;
77220;SDS011;66217;50.004;8.266;2023-04-25T09:16:12;5.35;;;2.63;;
77220;SDS011;66217;50.004;8.266;2023-04-25T09:19:21;4.63;;;2.42;;
77220;SDS011;66217;50.004;8.266;2023-04-25T09:21:51;5.03;;;2.70;;
77220;SDS011;66217;50.004;8.266;2023-04-25T09:24:39;5.47;;;2.67;;
77220;SDS011;66217;50.004;8.266;2023-04-25T09:27:10;7.13;;;2.45;;
77220;SDS011;66217;50.004;8.266;2023-04-25T09:29:38;6.25;;;2.47;;
77220;SDS011;66217;50.004;8.266;2023-04-25T09:34:53;6.65;;;2.60;;
77220;SDS011;66217;50.004;8.266;2023-04-25T09:40:27;5.90;;;2.88;;
77220;SDS011;66217;50.004;8.266;2023-04-25T09:43:08;7.22;;;2.80;;
77220;SDS011;66217;50.004;8.266;2023-04-25T09:45:55;7.82;;;2.83;;
77220;SDS011;66217;50.004;8.266;2023-04-25T09:48:24;7.65;;;3.35;;
77220;SDS011;66217;50.004;8.266;2023-04-25T09:51:03;5.15;;;3.00;;
77220;SDS011;66217;50.004;8.266;2023-04-25T09:53:29;11.02;;;3.30;;
77220;SDS011;66217;50.004;8.266;2023-04-25T09:56:09;6.50;;;3.50;;
77220;SDS011;66217;50.004;8.266;2023-04-25T09:58:36;9.20;;;3.60;;
77220;SDS011;66217;50.004;8.266;2023-04-25T10:01:09;8.23;;;3.45;;
77220;SDS011;66217;50.004;8.266;2023-04-25T10:03:46;8.90;;;4.07;;
77220;SDS011;66217;50.004;8.266;2023-04-25T10:06:36;8.85;;;3.70;;
77220;SDS011;66217;50.004;8.266;2023-04-25T10:09:03;9.90;;;4.07;;
77220;SDS011;66217;50.004;8.266;2023-04-25T10:11:29;9.80;;;3.78;;
77220;SDS011;66217;50.004;8.266;2023-04-25T10:13:55;6.38;;;3.42;;
77220;SDS011;66217;50.004;8.266;2023-04-25T10:16:21;11.13;;;3.60;;
77220;SDS011;66217;50.004;8.266;2023-04-25T10:18:47;9.00;;;3.50;;
77220;SDS011;66217;50.004;8.266;2023-04-25T10:21:13;6.75;;;3.40;;
77220;SDS011;66217;50.004;8.266;2023-04-25T10:23:39;8.05;;;3.53;;
77220;SDS011;66217;50.004;8.266;2023-04-25T10:26:05;6.43;;;3.22;;
77220;SDS011;66217;50.004;8.266;2023-04-25T10:31:22;9.88;;;3.78;;
77220;SDS011;66217;50.004;8.266;2023-04-25T10:33:48;9.88;;;3.28;;
77220;SDS011;66217;50.004;8.266;2023-04-25T10:36:14;9.45;;;4.20;;
77220;SDS011;66217;50.004;8.266;2023-04-25T10:38:43;7.57;;;3.88;;
77220;SDS011;66217;50.004;8.266;2023-04-25T10:41:09;7.55;;;3.42;;
77220;SDS011;66217;50.004;8.266;2023-04-25T10:43:39;9.18;;;3.70;;
77220;SDS011;66217;50.004;8.266;2023-04-25T10:48:44;8.73;;;3.70;;
77220;SDS011;66217;50.004;8.266;2023-04-25T10:51:15;6.95;;;3.30;;
77220;SDS011;66217;50.004;8.266;2023-04-25T10:53:45;9.55;;;4.20;;
77220;SDS011;66217;50.004;8.266;2023-04-25T10:56:28;7.65;;;3.72;;
77220;SDS011;66217;50.004;8.266;2023-04-25T10:59:05;6.57;;;3.30;;
77220;SDS011;66217;50.004;8.266;2023-04-25T11:01:39;4.97;;;2.85;;
77220;SDS011;66217;50.004;8.266;2023-04-25T11:04:05;8.25;;;3.28;;
77220;SDS011;66217;50.004;8.266;2023-04-25T11:07:05;6.97;;;3.22;;
77220;SDS011;66217;50.004;8.266;2023-04-25T11:09:27;8.80;;;3.85;;
77220;SDS011;66217;50.004;8.266;2023-04-25T11:11:53;6.60;;;3.00;;
77220;SDS011;66217;50.004;8.266;2023-04-25T11:14:20;11.88;;;3.05;;
77220;SDS011;66217;50.004;8.266;2023-04-25T11:16:47;11.50;;;3.15;;
77220;SDS011;66217;50.004;8.266;2023-04-25T11:19:13;6.88;;;2.92;;
77220;SDS011;66217;50.004;8.266;2023-04-25T11:21:38;7.68;;;2.90;;
77220;SDS011;66217;50.004;8.266;2023-04-25T11:24:04;7.80;;;3.20;;
77220;SDS011;66217;50.004;8.266;2023-04-25T11:26:30;7.95;;;3.10;;
77220;SDS011;66217;50.004;8.266;2023-04-25T11:28:58;8.80;;;3.38;;
77220;SDS011;66217;50.004;8.266;2023-04-25T11:31:28;10.93;;;3.67;;
77220;SDS011;66217;50.004;8.266;2023-04-25T11:33:56;9.57;;;3.05;;
77220;SDS011;66217;50.004;8.266;2023-04-25T11:36:22;11.43;;;3.20;;
77220;SDS011;66217;50.004;8.266;2023-04-25T11:38:49;9.30;;;3.20;;
77220;SDS011;66217;50.004;8.266;2023-04-25T11:41:15;6.50;;;2.70;;
77220;SDS011;66217;50.004;8.266;2023-04-25T11:43:42;10.60;;;3.00;;
77220;SDS011;66217;50.004;8.266;2023-04-25T11:46:08;9.05;;;2.97;;
77220;SDS011;66217;50.004;8.266;2023-04-25T11:48:41;16.45;;;3.47;;
77220;SDS011;66217;50.004;8.266;2023-04-25T11:51:07;13.32;;;3.30;;
77220;SDS011;66217;50.004;8.266;2023-04-25T11:53:33;7.13;;;2.75;;
77220;SDS011;66217;50.004;8.266;2023-04-25T11:55:59;9.35;;;2.92;;
77220;SDS011;66217;50.004;8.266;2023-04-25T11:58:25;6.80;;;2.50;;
77220;SDS011;66217;50.004;8.266;2023-04-25T12:00:51;10.02;;;3.00;;
77220;SDS011;66217;50.004;8.266;2023-04-25T12:03:17;8.93;;;3.58;;
77220;SDS011;66217;50.004;8.266;2023-04-25T12:05:43;16.55;;;3.72;;
77220;SDS011;66217;50.004;8.266;2023-04-25T12:08:10;8.55;;;2.75;;
77220;SDS011;66217;50.004;8.266;2023-04-25T12:10:39;7.72;;;2.85;;
77220;SDS011;66217;50.004;8.266;2023-04-25T12:13:19;7.72;;;2.90;;
77220;SDS011;66217;50.004;8.266;2023-04-25T12:15:45;12.48;;;2.92;;
77220;SDS011;66217;50.004;8.266;2023-04-25T12:18:10;8.30;;;2.60;;
77220;SDS011;66217;50.004;8.266;2023-04-25T12:20:36;12.00;;;2.70;;
77220;SDS011;66217;50.004;8.266;2023-04-25T12:23:01;9.23;;;3.00;;
77220;SDS011;66217;50.004;8.266;2023-04-25T12:25:41;12.75;;;2.85;;
77220;SDS011;66217;50.004;8.266;2023-04-25T12:33:22;8.75;;;2.72;;
77220;SDS011;66217;50.004;8.266;2023-04-25T12:35:48;6.60;;;2.60;;
77220;SDS011;66217;50.004;8.266;2023-04-25T12:38:21;6.10;;;2.85;;
77220;SDS011;66217;50.004;8.266;2023-04-25T12:40:54;9.77;;;2.60;;
77220;SDS011;66217;50.004;8.266;2023-04-25T12:43:19;6.45;;;2.47;;
77220;SDS011;66217;50.004;8.266;2023-04-25T12:45:47;6.82;;;2.28;;
77220;SDS011;66217;50.004;8.266;2023-04-25T12:48:14;9.35;;;2.70;;
77220;SDS011;66217;50.004;8.266;2023-04-25T12:50:39;8.95;;;3.17;;
77220;SDS011;66217;50.004;8.266;2023-04-25T12:53:06;11.93;;;2.75;;
77220;SDS011;66217;50.004;8.266;2023-04-25T12:55:31;5.45;;;2.28;;
77220;SDS011;66217;50.004;8.266;2023-04-25T12:57:57;5.93;;;2.90;;
77220;SDS011;66217;50.004;8.266;2023-04-25T13:00:22;6.80;;;2.45;;
77220;SDS011;66217;50.004;8.266;2023-04-25T13:02:48;7.55;;;2.50;;
77220;SDS011;66217;50.004;8.266;2023-04-25T13:05:13;6.07;;;2.17;;
77220;SDS011;66217;50.004;8.266;2023-04-25T13:07:38;5.28;;;2.17;;
77220;SDS011;66217;50.004;8.266;2023-04-25T13:10:04;9.95;;;2.72;;
77220;SDS011;66217;50.004;8.266;2023-04-25T13:12:31;7.70;;;2.58;;
77220;SDS011;66217;50.004;8.266;2023-04-25T13:14:56;4.95;;;2.45;;
77220;SDS011;66217;50.004;8.266;2023-04-25T13:17:22;8.07;;;2.75;;
77220;SDS011;66217;50.004;8.266;2023-04-25T13:19:47;9.23;;;2.75;;
77220;SDS011;66217;50.004;8.266;2023-04-25T13:22:13;4.70;;;1.92;;
77220;SDS011;66217;50.004;8.266;2023-04-25T13:24:40;9.27;;;2.97;;
77220;SDS011;66217;50.004;8.266;2023-04-25T13:27:05;5.25;;;2.40;;
77220;SDS011;66217;50.004;8.266;2023-04-25T13:29:31;6.10;;;2.30;;
77220;SDS011;66217;50.004;8.266;2023-04-25T13:31:59;6.45;;;2.30;;
77220;SDS011;66217;50.004;8.266;2023-04-25T13:34:24;6.55;;;2.38;;
77220;SDS011;66217;50.004;8.266;2023-04-25T13:36:50;7.07;;;2.40;;
77220;SDS011;66217;50.004;8.266;2023-04-25T13:39:15;4.50;;;2.25;;
77220;SDS011;66217;50.004;8.266;2023-04-25T13:41:41;10.30;;;2.90;;
77220;SDS011;66217;50.004;8.266;2023-04-25T13:44:06;7.68;;;2.35;;
77220;SDS011;66217;50.004;8.266;2023-04-25T13:46:32;6.00;;;2.60;;
77220;SDS011;66217;50.004;8.266;2023-04-25T13:48:57;4.28;;;2.00;;
77220;SDS011;66217;50.004;8.266;2023-04-25T13:51:22;5.03;;;1.95;;
77220;SDS011;66217;50.004;8.266;2023-04-25T13:53:48;6.40;;;2.28;;
77220;SDS011;66217;50.004;8.266;2023-04-25T13:56:13;9.15;;;2.97;;
77220;SDS011;66217;50.004;8.266;2023-04-25T13:58:39;3.88;;;1.92;;
77220;SDS011;66217;50.004;8.266;2023-04-25T14:01:05;7.53;;;2.47;;
77220;SDS011;66217;50.004;8.266;2023-04-25T14:03:30;7.10;;;1.98;;
77220;SDS011;66217;50.004;8.266;2023-04-25T14:05:56;12.40;;;2.85;;
77220;SDS011;66217;50.004;8.266;2023-04-25T14:08:21;7.82;;;2.28;;
77220;SDS011;66217;50.004;8.266;2023-04-25T14:10:47;6.60;;;2.20;;
77220;SDS011;66217;50.004;8.266;2023-04-25T14:13:12;8.18;;;2.08;;
77220;SDS011;66217;50.004;8.266;2023-04-25T14:15:38;11.43;;;3.03;;
77220;SDS011;66217;50.004;8.266;2023-04-25T14:18:03;7.95;;;2.40;;
77220;SDS011;66217;50.004;8.266;2023-04-25T14:20:29;7.85;;;2.45;;
77220;SDS011;66217;50.004;8.266;2023-04-25T14:22:55;6.25;;;2.55;;
77220;SDS011;66217;50.004;8.266;2023-04-25T14:25:22;7.47;;;2.55;;
77220;SDS011;66217;50.004;8.266;2023-04-25T14:27:50;7.15;;;2.35;;
77220;SDS011;66217;50.004;8.266;2023-04-25T14:30:19;10.27;;;2.70;;
77220;SDS011;66217;50.004;8.266;2023-04-25T14:32:46;9.13;;;2.92;;
77220;SDS011;66217;50.004;8.266;2023-04-25T14:35:11;10.70;;;2.60;;
77220;SDS011;66217;50.004;8.266;2023-04-25T14:37:37;6.80;;;2.33;;
77220;SDS011;66217;50.004;8.266;2023-04-25T14:40:02;6.97;;;2.50;;
77220;SDS011;66217;50.004;8.266;2023-04-25T14:42:28;7.78;;;2.30;;
77220;SDS011;66217;50.004;8.266;2023-04-25T14:44:53;7.35;;;2.40;;
77220;SDS011;66217;50.004;8.266;2023-04-25T14:47:19;7.28;;;2.45;;
77220;SDS011;66217;50.004;8.266;2023-04-25T14:49:44;8.57;;;2.97;;
77220;SDS011;66217;50.004;8.266;2023-04-25T14:52:16;8.57;;;2.80;;
77220;SDS011;66217;50.004;8.266;2023-04-25T14:54:41;10.35;;;2.78;;
77220;SDS011;66217;50.004;8.266;2023-04-25T14:57:07;9.18;;;2.40;;
77220;SDS011;66217;50.004;8.266;2023-04-25T14:59:33;6.47;;;2.53;;
77220;SDS011;66217;50.004;8.266;2023-04-25T15:01:58;8.63;;;2.45;;
77220;SDS011;66217;50.004;8.266;2023-04-25T15:04:24;8.82;;;2.95;;
77220;SDS011;66217;50.004;8.266;2023-04-25T15:06:50;9.30;;;2.22;;
77220;SDS011;66217;50.004;8.266;2023-04-25T15:09:16;4.57;;;2.00;;
77220;SDS011;66217;50.004;8.266;2023-04-25T15:11:41;8.65;;;2.50;;